sensor_id;sensor_type;location;lat;lon;timestamp;temperature;humidity
15072;DHT22;7635;56.696;13.002;2023-05-15T00:01:17;11.00;99.90
15072;DHT22;7635;56.696;13.002;2023-05-15T00:03:45;11.00;99.90
15072;DHT22;7635;56.696;13.002;2023-05-15T00:06:11;11.00;99.90
15072;DHT22;7635;56.696;13.002;2023-05-15T00:08:38;11.00;99.90
15072;DHT22;7635;56.696;13.002;2023-05-15T00:11:05;11.00;99.90
15072;DHT22;7635;56.696;13.002;2023-05-15T00:13:32;10.90;99.90
15072;DHT22;7635;56.696;13.002;2023-05-15T00:15:58;10.90;99.90
15072;DHT22;7635;56.696;13.002;2023-05-15T00:18:25;10.80;99.90
15072;DHT22;7635;56.696;13.002;2023-05-15T00:20:53;10.80;99.90
15072;DHT22;7635;56.696;13.002;2023-05-15T00:23:20;10.80;99.90
15072;DHT22;7635;56.696;13.002;2023-05-15T00:25:46;10.80;99.90
15072;DHT22;7635;56.696;13.002;2023-05-15T00:28:13;10.80;99.90
15072;DHT22;7635;56.696;13.002;2023-05-15T00:30:40;10.80;99.90
15072;DHT22;7635;56.696;13.002;2023-05-15T00:33:06;10.70;99.90
15072;DHT22;7635;56.696;13.002;2023-05-15T00:35:33;10.70;99.90
15072;DHT22;7635;56.696;13.002;2023-05-15T00:38:01;10.60;99.90
15072;DHT22;7635;56.696;13.002;2023-05-15T00:40:28;10.60;99.90
15072;DHT22;7635;56.696;13.002;2023-05-15T00:42:57;10.60;99.90
15072;DHT22;7635;56.696;13.002;2023-05-15T00:45:25;10.60;99.90
15072;DHT22;7635;56.696;13.002;2023-05-15T00:47:53;10.60;99.90
15072;DHT22;7635;56.696;13.002;2023-05-15T00:50:21;10.50;99.90
15072;DHT22;7635;56.696;13.002;2023-05-15T00:52:49;10.50;99.90
15072;DHT22;7635;56.696;13.002;2023-05-15T00:55:17;10.50;99.90
15072;DHT22;7635;56.696;13.002;2023-05-15T00:57:45;10.40;99.90
15072;DHT22;7635;56.696;13.002;2023-05-15T01:00:13;10.40;99.90
15072;DHT22;7635;56.696;13.002;2023-05-15T01:02:43;10.40;99.90
15072;DHT22;7635;56.696;13.002;2023-05-15T01:05:09;10.40;99.90
15072;DHT22;7635;56.696;13.002;2023-05-15T01:07:42;10.40;99.90
15072;DHT22;7635;56.696;13.002;2023-05-15T01:10:11;10.40;99.90
15072;DHT22;7635;56.696;13.002;2023-05-15T01:12:39;10.50;99.90
15072;DHT22;7635;56.696;13.002;2023-05-15T01:15:07;10.60;99.90
15072;DHT22;7635;56.696;13.002;2023-05-15T01:17:34;10.60;99.90
15072;DHT22;7635;56.696;13.002;2023-05-15T01:20:05;10.70;99.90
15072;DHT22;7635;56.696;13.002;2023-05-15T01:22:46;10.70;99.90
15072;DHT22;7635;56.696;13.002;2023-05-15T01:25:42;10.70;99.90
15072;DHT22;7635;56.696;13.002;2023-05-15T01:28:16;10.80;99.90
15072;DHT22;7635;56.696;13.002;2023-05-15T01:30:45;10.80;99.90
15072;DHT22;7635;56.696;13.002;2023-05-15T01:33:17;10.80;99.90
15072;DHT22;7635;56.696;13.002;2023-05-15T01:35:51;10.80;99.90
15072;DHT22;7635;56.696;13.002;2023-05-15T01:38:26;10.80;99.90
15072;DHT22;7635;56.696;13.002;2023-05-15T01:40:58;10.80;99.90
15072;DHT22;7635;56.696;13.002;2023-05-15T01:43:31;10.80;99.90
15072;DHT22;7635;56.696;13.002;2023-05-15T01:45:58;10.80;99.90
15072;DHT22;7635;56.696;13.002;2023-05-15T01:48:27;10.80;99.90
15072;DHT22;7635;56.696;13.002;2023-05-15T01:50:57;10.80;99.90
15072;DHT22;7635;56.696;13.002;2023-05-15T01:53:27;10.80;99.90
15072;DHT22;7635;56.696;13.002;2023-05-15T01:55:56;10.80;99.90
15072;DHT22;7635;56.696;13.002;2023-05-15T01:58:24;10.80;99.90
15072;DHT22;7635;56.696;13.002;2023-05-15T02:00:53;10.80;99.90
15072;DHT22;7635;56.696;13.002;2023-05-15T02:03:20;10.80;99.90
15072;DHT22;7635;56.696;13.002;2023-05-15T02:05:47;10.80;99.90
15072;DHT22;7635;56.696;13.002;2023-05-15T02:08:15;10.80;99.90
15072;DHT22;7635;56.696;13.002;2023-05-15T02:10:42;10.80;99.90
15072;DHT22;7635;56.696;13.002;2023-05-15T02:13:10;10.80;99.90
15072;DHT22;7635;56.696;13.002;2023-05-15T02:15:38;10.80;99.90
15072;DHT22;7635;56.696;13.002;2023-05-15T02:18:06;10.80;99.90
15072;DHT22;7635;56.696;13.002;2023-05-15T02:20:33;10.70;99.90
15072;DHT22;7635;56.696;13.002;2023-05-15T02:23:00;10.70;99.90
15072;DHT22;7635;56.696;13.002;2023-05-15T02:25:33;10.70;99.90
15072;DHT22;7635;56.696;13.002;2023-05-15T02:28:05;10.70;99.90
15072;DHT22;7635;56.696;13.002;2023-05-15T02:30:39;10.70;99.90
15072;DHT22;7635;56.696;13.002;2023-05-15T02:33:16;10.60;99.90
15072;DHT22;7635;56.696;13.002;2023-05-15T02:35:48;10.60;99.90
15072;DHT22;7635;56.696;13.002;2023-05-15T02:38:19;10.60;99.90
15072;DHT22;7635;56.696;13.002;2023-05-15T02:40:49;10.60;99.90
15072;DHT22;7635;56.696;13.002;2023-05-15T02:43:17;10.60;99.90
15072;DHT22;7635;56.696;13.002;2023-05-15T02:45:45;10.60;99.90
15072;DHT22;7635;56.696;13.002;2023-05-15T02:48:14;10.50;99.90
15072;DHT22;7635;56.696;13.002;2023-05-15T02:50:42;10.50;99.90
15072;DHT22;7635;56.696;13.002;2023-05-15T02:53:09;10.50;99.90
15072;DHT22;7635;56.696;13.002;2023-05-15T02:55:38;10.50;99.90
15072;DHT22;7635;56.696;13.002;2023-05-15T02:58:05;10.50;99.90
15072;DHT22;7635;56.696;13.002;2023-05-15T03:00:32;10.50;99.90
15072;DHT22;7635;56.696;13.002;2023-05-15T03:02:59;10.50;99.90
15072;DHT22;7635;56.696;13.002;2023-05-15T03:05:27;10.50;99.90
15072;DHT22;7635;56.696;13.002;2023-05-15T03:07:53;10.50;99.90
15072;DHT22;7635;56.696;13.002;2023-05-15T03:10:20;10.50;99.90
15072;DHT22;7635;56.696;13.002;2023-05-15T03:12:48;10.40;99.90
15072;DHT22;7635;56.696;13.002;2023-05-15T03:15:15;10.30;99.90
15072;DHT22;7635;56.696;13.002;2023-05-15T03:17:42;10.30;99.90
15072;DHT22;7635;56.696;13.002;2023-05-15T03:20:09;10.40;99.90
15072;DHT22;7635;56.696;13.002;2023-05-15T03:22:37;10.40;99.90
15072;DHT22;7635;56.696;13.002;2023-05-15T03:25:05;10.40;99.90
15072;DHT22;7635;56.696;13.002;2023-05-15T03:27:32;10.40;99.90
15072;DHT22;7635;56.696;13.002;2023-05-15T03:29:58;10.40;99.90
15072;DHT22;7635;56.696;13.002;2023-05-15T03:32:25;10.40;99.90
15072;DHT22;7635;56.696;13.002;2023-05-15T03:34:52;10.40;99.90
15072;DHT22;7635;56.696;13.002;2023-05-15T03:37:18;10.50;99.90
15072;DHT22;7635;56.696;13.002;2023-05-15T03:39:46;10.50;99.90
15072;DHT22;7635;56.696;13.002;2023-05-15T03:42:13;10.50;99.90
15072;DHT22;7635;56.696;13.002;2023-05-15T03:44:40;10.50;99.90
15072;DHT22;7635;56.696;13.002;2023-05-15T03:47:06;10.60;99.90
15072;DHT22;7635;56.696;13.002;2023-05-15T03:49:33;10.70;99.90
15072;DHT22;7635;56.696;13.002;2023-05-15T03:52:00;10.70;99.90
15072;DHT22;7635;56.696;13.002;2023-05-15T03:54:26;10.80;99.90
15072;DHT22;7635;56.696;13.002;2023-05-15T03:56:55;10.80;99.90
15072;DHT22;7635;56.696;13.002;2023-05-15T03:59:22;10.90;99.90
15072;DHT22;7635;56.696;13.002;2023-05-15T04:01:48;11.00;99.90
15072;DHT22;7635;56.696;13.002;2023-05-15T04:04:15;11.00;99.90
15072;DHT22;7635;56.696;13.002;2023-05-15T04:06:42;11.00;99.90
15072;DHT22;7635;56.696;13.002;2023-05-15T04:09:09;11.10;99.90
15072;DHT22;7635;56.696;13.002;2023-05-15T04:11:36;11.10;99.90
15072;DHT22;7635;56.696;13.002;2023-05-15T04:14:04;11.10;99.90
15072;DHT22;7635;56.696;13.002;2023-05-15T04:16:30;11.20;99.90
15072;DHT22;7635;56.696;13.002;2023-05-15T04:18:57;11.20;99.90
15072;DHT22;7635;56.696;13.002;2023-05-15T04:21:24;11.30;99.90
15072;DHT22;7635;56.696;13.002;2023-05-15T04:23:50;11.30;99.90
15072;DHT22;7635;56.696;13.002;2023-05-15T04:26:17;11.40;99.90
15072;DHT22;7635;56.696;13.002;2023-05-15T04:28:44;11.50;99.90
15072;DHT22;7635;56.696;13.002;2023-05-15T04:31:12;11.50;99.90
15072;DHT22;7635;56.696;13.002;2023-05-15T04:33:39;11.60;99.90
15072;DHT22;7635;56.696;13.002;2023-05-15T04:36:06;11.70;99.90
15072;DHT22;7635;56.696;13.002;2023-05-15T04:38:33;11.70;99.90
15072;DHT22;7635;56.696;13.002;2023-05-15T04:41:00;11.80;99.90
15072;DHT22;7635;56.696;13.002;2023-05-15T04:43:27;11.80;99.90
15072;DHT22;7635;56.696;13.002;2023-05-15T04:45:53;11.90;99.90
15072;DHT22;7635;56.696;13.002;2023-05-15T04:48:22;12.00;99.90
15072;DHT22;7635;56.696;13.002;2023-05-15T04:50:48;12.00;99.90
15072;DHT22;7635;56.696;13.002;2023-05-15T04:53:15;12.10;99.90
15072;DHT22;7635;56.696;13.002;2023-05-15T04:55:42;12.20;99.90
15072;DHT22;7635;56.696;13.002;2023-05-15T04:58:08;12.30;99.90
15072;DHT22;7635;56.696;13.002;2023-05-15T05:00:35;12.30;99.90
15072;DHT22;7635;56.696;13.002;2023-05-15T05:03:02;12.40;99.90
15072;DHT22;7635;56.696;13.002;2023-05-15T05:05:30;12.50;99.90
15072;DHT22;7635;56.696;13.002;2023-05-15T05:07:57;12.50;99.90
15072;DHT22;7635;56.696;13.002;2023-05-15T05:10:24;12.60;99.90
15072;DHT22;7635;56.696;13.002;2023-05-15T05:12:50;12.60;99.90
15072;DHT22;7635;56.696;13.002;2023-05-15T05:15:17;12.60;99.90
15072;DHT22;7635;56.696;13.002;2023-05-15T05:17:44;12.60;99.90
15072;DHT22;7635;56.696;13.002;2023-05-15T05:20:11;12.70;99.90
15072;DHT22;7635;56.696;13.002;2023-05-15T05:22:39;12.70;99.90
15072;DHT22;7635;56.696;13.002;2023-05-15T05:25:07;12.70;99.90
15072;DHT22;7635;56.696;13.002;2023-05-15T05:27:34;12.70;99.90
15072;DHT22;7635;56.696;13.002;2023-05-15T05:30:00;12.70;99.90
15072;DHT22;7635;56.696;13.002;2023-05-15T05:32:27;12.70;99.90
15072;DHT22;7635;56.696;13.002;2023-05-15T05:34:54;12.70;99.90
15072;DHT22;7635;56.696;13.002;2023-05-15T05:37:21;12.80;99.90
15072;DHT22;7635;56.696;13.002;2023-05-15T05:39:49;12.80;99.90
15072;DHT22;7635;56.696;13.002;2023-05-15T05:42:15;12.90;99.90
15072;DHT22;7635;56.696;13.002;2023-05-15T05:44:42;13.00;99.90
15072;DHT22;7635;56.696;13.002;2023-05-15T05:47:09;13.10;99.90
15072;DHT22;7635;56.696;13.002;2023-05-15T05:49:35;13.20;99.90
15072;DHT22;7635;56.696;13.002;2023-05-15T05:52:06;13.20;99.90
15072;DHT22;7635;56.696;13.002;2023-05-15T05:54:33;13.30;99.90
15072;DHT22;7635;56.696;13.002;2023-05-15T05:57:01;13.40;99.90
15072;DHT22;7635;56.696;13.002;2023-05-15T05:59:28;13.50;99.90
15072;DHT22;7635;56.696;13.002;2023-05-15T06:01:55;13.60;99.90
15072;DHT22;7635;56.696;13.002;2023-05-15T06:04:22;13.70;99.90
15072;DHT22;7635;56.696;13.002;2023-05-15T06:06:49;13.80;99.90
15072;DHT22;7635;56.696;13.002;2023-05-15T06:09:16;14.00;99.90
15072;DHT22;7635;56.696;13.002;2023-05-15T06:11:43;14.10;99.90
15072;DHT22;7635;56.696;13.002;2023-05-15T06:14:11;14.30;99.90
15072;DHT22;7635;56.696;13.002;2023-05-15T06:16:38;14.60;99.90
15072;DHT22;7635;56.696;13.002;2023-05-15T06:19:04;14.90;99.90
15072;DHT22;7635;56.696;13.002;2023-05-15T06:21:32;15.50;99.90
15072;DHT22;7635;56.696;13.002;2023-05-15T06:23:58;16.00;99.90
15072;DHT22;7635;56.696;13.002;2023-05-15T06:26:25;16.50;99.90
15072;DHT22;7635;56.696;13.002;2023-05-15T06:28:52;17.00;99.90
15072;DHT22;7635;56.696;13.002;2023-05-15T06:31:20;17.40;99.90
15072;DHT22;7635;56.696;13.002;2023-05-15T06:33:47;17.80;99.90
15072;DHT22;7635;56.696;13.002;2023-05-15T06:36:13;18.20;99.90
15072;DHT22;7635;56.696;13.002;2023-05-15T06:38:40;18.40;99.90
15072;DHT22;7635;56.696;13.002;2023-05-15T06:41:07;18.30;99.90
15072;DHT22;7635;56.696;13.002;2023-05-15T06:43:33;18.10;99.90
15072;DHT22;7635;56.696;13.002;2023-05-15T06:46:00;18.30;99.90
15072;DHT22;7635;56.696;13.002;2023-05-15T06:48:28;18.70;99.90
15072;DHT22;7635;56.696;13.002;2023-05-15T06:50:55;19.10;99.90
15072;DHT22;7635;56.696;13.002;2023-05-15T06:53:22;19.10;99.90
15072;DHT22;7635;56.696;13.002;2023-05-15T06:55:48;19.00;99.90
15072;DHT22;7635;56.696;13.002;2023-05-15T06:58:15;19.10;99.90
15072;DHT22;7635;56.696;13.002;2023-05-15T07:00:42;19.10;99.90
15072;DHT22;7635;56.696;13.002;2023-05-15T07:03:09;19.50;99.90
15072;DHT22;7635;56.696;13.002;2023-05-15T07:05:37;19.90;99.90
15072;DHT22;7635;56.696;13.002;2023-05-15T07:08:04;20.20;99.90
15072;DHT22;7635;56.696;13.002;2023-05-15T07:10:31;20.30;99.90
15072;DHT22;7635;56.696;13.002;2023-05-15T07:12:58;20.70;99.90
15072;DHT22;7635;56.696;13.002;2023-05-15T07:15:24;21.00;99.90
15072;DHT22;7635;56.696;13.002;2023-05-15T07:17:51;21.30;99.90
15072;DHT22;7635;56.696;13.002;2023-05-15T07:20:18;21.60;99.90
15072;DHT22;7635;56.696;13.002;2023-05-15T07:22:46;21.90;99.90
15072;DHT22;7635;56.696;13.002;2023-05-15T07:25:13;22.00;99.90
15072;DHT22;7635;56.696;13.002;2023-05-15T07:27:40;22.20;99.90
15072;DHT22;7635;56.696;13.002;2023-05-15T07:30:08;22.60;99.90
15072;DHT22;7635;56.696;13.002;2023-05-15T07:32:35;22.80;99.90
15072;DHT22;7635;56.696;13.002;2023-05-15T07:35:02;23.10;99.90
15072;DHT22;7635;56.696;13.002;2023-05-15T07:37:30;23.40;99.90
15072;DHT22;7635;56.696;13.002;2023-05-15T07:39:58;23.80;99.90
15072;DHT22;7635;56.696;13.002;2023-05-15T07:42:24;24.10;99.90
15072;DHT22;7635;56.696;13.002;2023-05-15T07:44:51;24.10;99.90
15072;DHT22;7635;56.696;13.002;2023-05-15T07:47:18;24.20;99.10
15072;DHT22;7635;56.696;13.002;2023-05-15T07:49:45;24.30;99.90
15072;DHT22;7635;56.696;13.002;2023-05-15T07:52:11;24.40;99.50
15072;DHT22;7635;56.696;13.002;2023-05-15T07:54:38;24.60;99.30
15072;DHT22;7635;56.696;13.002;2023-05-15T07:57:07;24.70;99.10
15072;DHT22;7635;56.696;13.002;2023-05-15T07:59:35;25.00;99.00
15072;DHT22;7635;56.696;13.002;2023-05-15T08:02:02;25.30;98.90
15072;DHT22;7635;56.696;13.002;2023-05-15T08:04:28;25.50;98.00
15072;DHT22;7635;56.696;13.002;2023-05-15T08:06:55;25.60;97.20
15072;DHT22;7635;56.696;13.002;2023-05-15T08:09:22;25.70;96.10
15072;DHT22;7635;56.696;13.002;2023-05-15T08:11:49;25.90;97.10
15072;DHT22;7635;56.696;13.002;2023-05-15T08:14:17;25.90;97.30
15072;DHT22;7635;56.696;13.002;2023-05-15T08:16:43;26.00;96.90
15072;DHT22;7635;56.696;13.002;2023-05-15T08:19:10;26.20;96.80
15072;DHT22;7635;56.696;13.002;2023-05-15T08:21:37;26.30;95.30
15072;DHT22;7635;56.696;13.002;2023-05-15T08:24:05;26.20;95.20
15072;DHT22;7635;56.696;13.002;2023-05-15T08:26:32;26.20;95.00
15072;DHT22;7635;56.696;13.002;2023-05-15T08:28:59;26.20;94.50
15072;DHT22;7635;56.696;13.002;2023-05-15T08:31:27;25.90;95.10
15072;DHT22;7635;56.696;13.002;2023-05-15T08:33:54;26.10;95.60
15072;DHT22;7635;56.696;13.002;2023-05-15T08:36:20;26.60;95.30
15072;DHT22;7635;56.696;13.002;2023-05-15T08:38:47;26.60;94.70
15072;DHT22;7635;56.696;13.002;2023-05-15T08:41:24;26.20;94.70
15072;DHT22;7635;56.696;13.002;2023-05-15T08:43:52;25.90;93.80
15072;DHT22;7635;56.696;13.002;2023-05-15T08:46:21;25.90;95.20
15072;DHT22;7635;56.696;13.002;2023-05-15T08:48:51;26.30;95.40
15072;DHT22;7635;56.696;13.002;2023-05-15T08:51:19;26.40;94.80
15072;DHT22;7635;56.696;13.002;2023-05-15T08:53:46;26.70;95.30
15072;DHT22;7635;56.696;13.002;2023-05-15T08:56:13;26.70;94.30
15072;DHT22;7635;56.696;13.002;2023-05-15T08:58:40;26.30;94.00
15072;DHT22;7635;56.696;13.002;2023-05-15T09:01:07;25.60;94.10
15072;DHT22;7635;56.696;13.002;2023-05-15T09:03:35;25.00;95.30
15072;DHT22;7635;56.696;13.002;2023-05-15T09:06:04;24.50;95.40
15072;DHT22;7635;56.696;13.002;2023-05-15T09:08:32;24.20;96.00
15072;DHT22;7635;56.696;13.002;2023-05-15T09:11:01;23.90;95.80
15072;DHT22;7635;56.696;13.002;2023-05-15T09:13:29;23.60;96.50
15072;DHT22;7635;56.696;13.002;2023-05-15T09:15:56;23.40;96.40
15072;DHT22;7635;56.696;13.002;2023-05-15T09:18:23;23.20;97.00
15072;DHT22;7635;56.696;13.002;2023-05-15T09:20:50;23.10;97.20
15072;DHT22;7635;56.696;13.002;2023-05-15T09:23:26;23.00;97.40
15072;DHT22;7635;56.696;13.002;2023-05-15T09:25:53;22.90;97.10
15072;DHT22;7635;56.696;13.002;2023-05-15T09:28:26;22.80;97.20
15072;DHT22;7635;56.696;13.002;2023-05-15T09:30:57;22.80;97.20
15072;DHT22;7635;56.696;13.002;2023-05-15T09:33:30;22.70;97.20
15072;DHT22;7635;56.696;13.002;2023-05-15T09:35:56;22.80;96.90
15072;DHT22;7635;56.696;13.002;2023-05-15T09:38:25;23.00;97.90
15072;DHT22;7635;56.696;13.002;2023-05-15T09:41:00;23.30;97.00
15072;DHT22;7635;56.696;13.002;2023-05-15T09:43:28;24.30;97.10
15072;DHT22;7635;56.696;13.002;2023-05-15T09:45:55;25.30;96.90
15072;DHT22;7635;56.696;13.002;2023-05-15T09:48:22;26.20;95.90
15072;DHT22;7635;56.696;13.002;2023-05-15T09:50:49;26.50;95.30
15072;DHT22;7635;56.696;13.002;2023-05-15T09:53:16;26.90;94.10
15072;DHT22;7635;56.696;13.002;2023-05-15T09:55:44;27.30;94.10
15072;DHT22;7635;56.696;13.002;2023-05-15T09:58:15;27.40;93.60
15072;DHT22;7635;56.696;13.002;2023-05-15T10:00:43;27.20;93.00
15072;DHT22;7635;56.696;13.002;2023-05-15T10:03:11;26.70;93.20
15072;DHT22;7635;56.696;13.002;2023-05-15T10:05:38;26.50;93.20
15072;DHT22;7635;56.696;13.002;2023-05-15T10:08:06;27.10;95.00
15072;DHT22;7635;56.696;13.002;2023-05-15T10:10:32;27.70;94.10
15072;DHT22;7635;56.696;13.002;2023-05-15T10:13:00;28.00;93.50
15072;DHT22;7635;56.696;13.002;2023-05-15T10:15:29;28.00;93.50
15072;DHT22;7635;56.696;13.002;2023-05-15T10:17:56;27.80;93.60
15072;DHT22;7635;56.696;13.002;2023-05-15T10:20:25;27.60;93.20
15072;DHT22;7635;56.696;13.002;2023-05-15T10:22:53;27.40;93.20
15072;DHT22;7635;56.696;13.002;2023-05-15T10:25:26;27.20;93.30
15072;DHT22;7635;56.696;13.002;2023-05-15T10:27:53;26.90;93.50
15072;DHT22;7635;56.696;13.002;2023-05-15T10:30:22;26.80;94.50
15072;DHT22;7635;56.696;13.002;2023-05-15T10:32:50;27.00;94.10
15072;DHT22;7635;56.696;13.002;2023-05-15T10:35:17;27.40;94.10
15072;DHT22;7635;56.696;13.002;2023-05-15T10:37:46;27.60;94.10
15072;DHT22;7635;56.696;13.002;2023-05-15T10:40:14;27.80;93.80
15072;DHT22;7635;56.696;13.002;2023-05-15T10:42:43;28.00;92.40
15072;DHT22;7635;56.696;13.002;2023-05-15T10:45:11;28.10;93.30
15072;DHT22;7635;56.696;13.002;2023-05-15T10:47:40;28.40;92.50
15072;DHT22;7635;56.696;13.002;2023-05-15T10:50:09;28.80;93.20
15072;DHT22;7635;56.696;13.002;2023-05-15T10:52:37;29.20;92.90
15072;DHT22;7635;56.696;13.002;2023-05-15T10:55:12;29.60;92.00
15072;DHT22;7635;56.696;13.002;2023-05-15T10:57:39;29.60;90.60
15072;DHT22;7635;56.696;13.002;2023-05-15T11:00:23;29.90;91.80
15072;DHT22;7635;56.696;13.002;2023-05-15T11:02:52;29.80;91.00
15072;DHT22;7635;56.696;13.002;2023-05-15T11:05:21;29.10;90.80
15072;DHT22;7635;56.696;13.002;2023-05-15T11:10:54;27.90;91.50
15072;DHT22;7635;56.696;13.002;2023-05-15T11:13:20;27.70;92.60
15072;DHT22;7635;56.696;13.002;2023-05-15T11:15:47;27.30;91.60
15072;DHT22;7635;56.696;13.002;2023-05-15T11:18:16;26.70;91.90
15072;DHT22;7635;56.696;13.002;2023-05-15T11:21:05;26.10;92.70
15072;DHT22;7635;56.696;13.002;2023-05-15T11:23:39;25.70;93.40
15072;DHT22;7635;56.696;13.002;2023-05-15T11:26:06;25.40;93.70
15072;DHT22;7635;56.696;13.002;2023-05-15T11:28:41;25.20;93.80
15072;DHT22;7635;56.696;13.002;2023-05-15T11:31:08;24.90;93.90
15072;DHT22;7635;56.696;13.002;2023-05-15T11:33:38;24.80;94.80
15072;DHT22;7635;56.696;13.002;2023-05-15T11:36:06;24.60;95.40
15072;DHT22;7635;56.696;13.002;2023-05-15T11:38:37;24.30;96.50
15072;DHT22;7635;56.696;13.002;2023-05-15T11:41:16;24.10;98.30
15072;DHT22;7635;56.696;13.002;2023-05-15T11:43:44;23.80;98.10
15072;DHT22;7635;56.696;13.002;2023-05-15T11:46:12;23.40;98.60
15072;DHT22;7635;56.696;13.002;2023-05-15T11:48:42;23.00;99.80
15072;DHT22;7635;56.696;13.002;2023-05-15T11:51:15;22.50;99.90
15072;DHT22;7635;56.696;13.002;2023-05-15T11:53:42;22.00;99.90
15072;DHT22;7635;56.696;13.002;2023-05-15T11:56:12;21.50;99.90
15072;DHT22;7635;56.696;13.002;2023-05-15T11:58:39;21.00;99.90
15072;DHT22;7635;56.696;13.002;2023-05-15T12:01:09;20.70;99.90
15072;DHT22;7635;56.696;13.002;2023-05-15T12:03:36;20.40;99.90
15072;DHT22;7635;56.696;13.002;2023-05-15T12:06:04;20.20;99.90
15072;DHT22;7635;56.696;13.002;2023-05-15T12:08:31;20.00;99.90
15072;DHT22;7635;56.696;13.002;2023-05-15T12:10:59;19.90;99.90
15072;DHT22;7635;56.696;13.002;2023-05-15T12:13:26;19.80;99.90
15072;DHT22;7635;56.696;13.002;2023-05-15T12:15:54;19.70;99.90
15072;DHT22;7635;56.696;13.002;2023-05-15T12:18:21;19.50;99.90
15072;DHT22;7635;56.696;13.002;2023-05-15T12:20:51;19.40;99.90
15072;DHT22;7635;56.696;13.002;2023-05-15T12:23:22;19.20;99.90
15072;DHT22;7635;56.696;13.002;2023-05-15T12:25:51;19.10;99.90
15072;DHT22;7635;56.696;13.002;2023-05-15T12:28:22;19.00;99.90
15072;DHT22;7635;56.696;13.002;2023-05-15T12:30:50;19.00;99.90
15072;DHT22;7635;56.696;13.002;2023-05-15T12:33:17;18.90;99.90
15072;DHT22;7635;56.696;13.002;2023-05-15T12:35:49;18.90;99.90
15072;DHT22;7635;56.696;13.002;2023-05-15T12:38:16;18.80;99.90
15072;DHT22;7635;56.696;13.002;2023-05-15T12:40:45;18.70;99.90
15072;DHT22;7635;56.696;13.002;2023-05-15T12:43:12;18.70;99.90
15072;DHT22;7635;56.696;13.002;2023-05-15T12:45:40;18.60;99.90
15072;DHT22;7635;56.696;13.002;2023-05-15T12:48:07;18.50;99.90
15072;DHT22;7635;56.696;13.002;2023-05-15T12:50:38;18.40;99.90
15072;DHT22;7635;56.696;13.002;2023-05-15T12:53:05;18.30;99.90
15072;DHT22;7635;56.696;13.002;2023-05-15T12:55:33;18.20;99.90
15072;DHT22;7635;56.696;13.002;2023-05-15T12:58:03;17.90;99.90
15072;DHT22;7635;56.696;13.002;2023-05-15T13:00:32;17.60;99.90
15072;DHT22;7635;56.696;13.002;2023-05-15T13:03:00;17.50;99.90
15072;DHT22;7635;56.696;13.002;2023-05-15T13:05:29;17.50;99.90
15072;DHT22;7635;56.696;13.002;2023-05-15T13:07:58;17.50;99.90
15072;DHT22;7635;56.696;13.002;2023-05-15T13:10:25;17.50;99.90
15072;DHT22;7635;56.696;13.002;2023-05-15T13:12:53;17.50;99.90
15072;DHT22;7635;56.696;13.002;2023-05-15T13:15:25;17.50;99.90
15072;DHT22;7635;56.696;13.002;2023-05-15T13:17:58;17.40;99.90
15072;DHT22;7635;56.696;13.002;2023-05-15T13:20:27;17.30;99.90
15072;DHT22;7635;56.696;13.002;2023-05-15T13:22:53;17.20;99.90
15072;DHT22;7635;56.696;13.002;2023-05-15T13:25:20;17.10;99.90
15072;DHT22;7635;56.696;13.002;2023-05-15T13:27:47;17.00;99.90
15072;DHT22;7635;56.696;13.002;2023-05-15T13:30:15;17.00;99.90
15072;DHT22;7635;56.696;13.002;2023-05-15T13:32:44;17.00;99.90
15072;DHT22;7635;56.696;13.002;2023-05-15T13:35:11;17.00;99.90
15072;DHT22;7635;56.696;13.002;2023-05-15T13:37:37;17.00;99.90
15072;DHT22;7635;56.696;13.002;2023-05-15T13:40:07;17.00;99.90
15072;DHT22;7635;56.696;13.002;2023-05-15T13:42:35;16.90;99.90
15072;DHT22;7635;56.696;13.002;2023-05-15T13:45:02;16.90;99.90
15072;DHT22;7635;56.696;13.002;2023-05-15T13:47:29;16.90;99.90
15072;DHT22;7635;56.696;13.002;2023-05-15T13:49:57;17.00;99.90
15072;DHT22;7635;56.696;13.002;2023-05-15T13:52:24;16.90;99.90
15072;DHT22;7635;56.696;13.002;2023-05-15T13:54:51;16.90;99.90
15072;DHT22;7635;56.696;13.002;2023-05-15T13:57:18;16.90;99.90
15072;DHT22;7635;56.696;13.002;2023-05-15T13:59:44;16.90;99.90
15072;DHT22;7635;56.696;13.002;2023-05-15T14:02:14;16.90;99.90
15072;DHT22;7635;56.696;13.002;2023-05-15T14:04:40;16.90;99.90
15072;DHT22;7635;56.696;13.002;2023-05-15T14:07:08;16.90;99.90
15072;DHT22;7635;56.696;13.002;2023-05-15T14:09:35;16.90;99.90
15072;DHT22;7635;56.696;13.002;2023-05-15T14:12:02;17.00;99.90
15072;DHT22;7635;56.696;13.002;2023-05-15T14:14:29;17.00;99.90
15072;DHT22;7635;56.696;13.002;2023-05-15T14:16:55;17.00;99.90
15072;DHT22;7635;56.696;13.002;2023-05-15T14:19:23;16.90;99.90
15072;DHT22;7635;56.696;13.002;2023-05-15T14:21:49;16.90;99.90
15072;DHT22;7635;56.696;13.002;2023-05-15T14:24:17;16.80;99.90
15072;DHT22;7635;56.696;13.002;2023-05-15T14:26:44;16.70;99.90
15072;DHT22;7635;56.696;13.002;2023-05-15T14:29:11;16.60;99.90
15072;DHT22;7635;56.696;13.002;2023-05-15T14:31:37;16.50;99.90
15072;DHT22;7635;56.696;13.002;2023-05-15T14:34:04;16.40;99.90
15072;DHT22;7635;56.696;13.002;2023-05-15T14:36:31;16.40;99.90
15072;DHT22;7635;56.696;13.002;2023-05-15T14:38:57;16.30;99.90
15072;DHT22;7635;56.696;13.002;2023-05-15T14:41:25;16.40;99.90
15072;DHT22;7635;56.696;13.002;2023-05-15T14:43:52;16.40;99.90
15072;DHT22;7635;56.696;13.002;2023-05-15T14:46:19;16.50;99.90
15072;DHT22;7635;56.696;13.002;2023-05-15T14:48:46;16.50;99.90
15072;DHT22;7635;56.696;13.002;2023-05-15T14:51:12;16.60;99.90
15072;DHT22;7635;56.696;13.002;2023-05-15T14:53:39;16.60;99.90
15072;DHT22;7635;56.696;13.002;2023-05-15T14:56:06;16.60;99.90
15072;DHT22;7635;56.696;13.002;2023-05-15T14:58:34;16.60;99.90
15072;DHT22;7635;56.696;13.002;2023-05-15T15:01:01;16.60;99.90
15072;DHT22;7635;56.696;13.002;2023-05-15T15:03:29;16.60;99.90
15072;DHT22;7635;56.696;13.002;2023-05-15T15:05:56;16.70;99.90
15072;DHT22;7635;56.696;13.002;2023-05-15T15:08:22;16.60;99.90
15072;DHT22;7635;56.696;13.002;2023-05-15T15:10:50;16.60;99.90
15072;DHT22;7635;56.696;13.002;2023-05-15T15:13:16;16.60;99.90
15072;DHT22;7635;56.696;13.002;2023-05-15T15:15:45;16.50;99.90
15072;DHT22;7635;56.696;13.002;2023-05-15T15:18:11;16.50;99.90
15072;DHT22;7635;56.696;13.002;2023-05-15T15:20:41;16.60;99.90
15072;DHT22;7635;56.696;13.002;2023-05-15T15:23:08;16.60;99.90
15072;DHT22;7635;56.696;13.002;2023-05-15T15:25:35;16.60;99.90
15072;DHT22;7635;56.696;13.002;2023-05-15T15:28:02;16.70;99.90
15072;DHT22;7635;56.696;13.002;2023-05-15T15:30:28;16.80;99.90
15072;DHT22;7635;56.696;13.002;2023-05-15T15:32:56;16.90;99.90
15072;DHT22;7635;56.696;13.002;2023-05-15T15:35:23;16.90;99.90
15072;DHT22;7635;56.696;13.002;2023-05-15T15:37:50;17.00;99.90